Paramoti, Brazil
Current Conditions -  °F | °C
As of 6:00 AM on Saturday 25 Oct 2014 (Local Time) from SBFZ Reporting Station
Few Clouds Few Clouds  
Wind Chill: 79°   Ceiling: Unl
Heat Index: 81°   Visibility: 6mi
Dew Point: 66°   Wind: 15mph
Humidity: 65%   Direction: 120°ESE
Pressure: 29.88"   Gusts: NA
Location:  4.1°S, 39.24°W
Report Text: SBFZ 250900Z 12013KT 9999 FEW020 26/19 Q1012
Loading
Personal Weather Stations






























Interactive Weather Map
Tropical Storm Tracking
New forecast layout! Learn more

10-Day Weather Forecast

Advertisements
Track Severe Weather on mobile